createdAt,value
2024-04-02T00:01:31.930Z,99164.38
2024-04-02T00:03:39.919Z,99163.48
2024-04-02T00:05:48.393Z,99165.69
2024-04-02T00:07:55.794Z,99170.17
2024-04-02T00:10:03.166Z,99176.30
2024-04-02T00:12:11.376Z,99181.15
2024-04-02T00:14:19.080Z,99181.98
2024-04-02T00:16:26.544Z,99183.77
2024-04-02T00:18:33.887Z,99191.15
2024-04-02T00:20:41.260Z,99187.83
2024-04-02T00:22:49.233Z,99193.27
2024-04-02T00:24:56.570Z,99196.92
2024-04-02T00:27:04.280Z,99196.52
2024-04-02T00:29:11.805Z,99196.63
2024-04-02T00:31:21.863Z,99198.23
2024-04-02T00:33:29.308Z,99203.13
2024-04-02T00:35:36.789Z,99209.01
2024-04-02T00:37:44.473Z,99216.19
2024-04-02T00:39:52.229Z,99226.20
2024-04-02T00:41:59.629Z,99233.02
2024-04-02T00:44:07.129Z,99242.62
2024-04-02T00:46:14.690Z,99249.27
2024-04-02T00:48:24.490Z,99250.56
2024-04-02T00:50:32.759Z,99255.80
2024-04-02T00:52:41.483Z,99257.39
2024-04-02T00:54:49.058Z,99249.32
2024-04-02T00:56:56.535Z,99246.62
2024-04-02T00:59:04.298Z,99245.30
2024-04-02T01:01:12.599Z,99241.56
2024-04-02T01:03:19.952Z,99240.45
2024-04-02T01:05:27.446Z,99241.33
2024-04-02T01:07:36.705Z,99240.24
2024-04-02T01:09:46.344Z,99234.25
2024-04-02T01:11:55.097Z,99236.11
2024-04-02T01:14:02.949Z,99234.91
2024-04-02T01:16:14.255Z,99233.46
2024-04-02T01:18:22.113Z,99231.04
2024-04-02T01:20:29.558Z,99230.66
2024-04-02T01:22:37.004Z,99227.73
2024-04-02T01:24:50.496Z,99230.66
2024-04-02T01:26:59.149Z,99231.08
2024-04-02T01:29:07.222Z,99234.80
2024-04-02T01:31:14.684Z,99236.30
2024-04-02T01:33:22.206Z,99235.41
2024-04-02T01:35:29.725Z,99232.67
2024-04-02T01:37:37.148Z,99232.99
2024-04-02T01:39:44.914Z,99234.89
2024-04-02T01:41:52.253Z,99233.23
2024-04-02T01:43:59.802Z,99232.38
2024-04-02T01:46:07.664Z,99235.91
2024-04-02T01:48:15.023Z,99240.67
2024-04-02T01:50:22.921Z,99241.00
2024-04-02T01:52:30.957Z,99236.16
2024-04-02T02:00:07.558Z,99241.05
2024-04-02T02:02:15.128Z,99248.23
2024-04-02T02:04:23.229Z,99248.95
2024-04-02T02:06:30.678Z,99253.82
2024-04-02T02:08:38.227Z,99254.90
2024-04-02T02:10:45.594Z,99258.08
2024-04-02T02:12:53.350Z,99260.61
2024-04-02T02:15:01.036Z,99265.98
2024-04-02T02:17:09.135Z,99267.67
2024-04-02T02:19:16.506Z,99267.95
2024-04-02T02:21:24.167Z,99272.28
2024-04-02T02:23:31.859Z,99276.46
2024-04-02T02:25:39.238Z,99276.61
2024-04-02T02:27:46.577Z,99280.22
2024-04-02T02:29:54.305Z,99286.50
2024-04-02T02:32:03.264Z,99287.00
2024-04-02T02:34:12.883Z,99290.13
2024-04-02T02:36:21.050Z,99290.58
2024-04-02T02:38:28.790Z,99285.84
2024-04-02T02:40:36.352Z,99278.70
2024-04-02T02:42:46.327Z,99275.63
2024-04-02T02:44:53.766Z,99277.65
2024-04-02T02:47:01.474Z,99278.02
2024-04-02T02:49:08.871Z,99279.00
2024-04-02T02:51:16.287Z,99276.80
2024-04-02T02:53:24.000Z,99277.03
2024-04-02T02:55:31.789Z,99276.23
2024-04-02T02:57:40.109Z,99278.98
2024-04-02T02:59:48.625Z,99276.38
2024-04-02T03:01:57.477Z,99275.98
2024-04-02T03:04:05.341Z,99277.36
2024-04-02T03:06:12.748Z,99280.36
2024-04-02T03:08:20.403Z,99280.49
2024-04-02T03:10:27.952Z,99277.84
2024-04-02T03:12:35.701Z,99278.80
2024-04-02T03:14:43.450Z,99275.15
2024-04-02T03:16:50.844Z,99272.42
2024-04-02T03:18:58.579Z,99277.14
2024-04-02T03:21:06.799Z,99276.77
2024-04-02T03:23:14.241Z,99277.88
2024-04-02T03:25:21.591Z,99273.66
2024-04-02T03:27:29.106Z,99271.52
2024-04-02T03:29:36.572Z,99266.72
2024-04-02T03:31:44.536Z,99264.02
2024-04-02T03:33:51.900Z,99265.55
2024-04-02T03:36:04.387Z,99263.13
2024-04-02T03:38:12.652Z,99260.10
2024-04-02T03:40:20.783Z,99259.39
2024-04-02T03:42:28.133Z,99268.17
2024-04-02T03:44:36.428Z,99268.98
2024-04-02T03:46:43.818Z,99267.73
2024-04-02T03:48:52.892Z,99271.16
2024-04-02T03:51:00.912Z,99275.79
2024-04-02T03:53:09.656Z,99280.73
2024-04-02T03:55:19.949Z,99283.69
2024-04-02T03:57:27.683Z,99287.05
2024-04-02T03:59:37.803Z,99290.45
2024-04-02T04:01:45.792Z,99293.56
2024-04-02T04:03:54.008Z,99293.23
2024-04-02T04:06:03.035Z,99292.30
2024-04-02T04:08:11.528Z,99293.19
2024-04-02T04:10:19.445Z,99291.58
2024-04-02T04:12:27.241Z,99288.89
2024-04-02T04:14:35.236Z,99292.40
2024-04-02T04:16:42.946Z,99289.85
2024-04-02T04:18:50.288Z,99294.55
2024-04-02T04:20:59.634Z,99291.98
2024-04-02T04:23:08.173Z,99288.40
2024-04-02T04:25:16.043Z,99288.19
2024-04-02T04:27:29.525Z,99288.31
2024-04-02T04:29:36.848Z,99291.14
2024-04-02T04:31:47.907Z,99297.98
2024-04-02T04:33:55.321Z,99301.04
2024-04-02T04:36:02.640Z,99301.27
2024-04-02T04:38:10.267Z,99301.61
2024-04-02T04:40:21.556Z,99298.79
2024-04-02T04:42:33.202Z,99302.50
2024-04-02T04:44:44.101Z,99298.34
2024-04-02T04:46:51.814Z,99298.15
2024-04-02T04:48:59.513Z,99295.89
2024-04-02T04:51:08.704Z,99303.98
2024-04-02T04:53:16.106Z,99304.48
2024-04-02T04:55:23.601Z,99310.98
2024-04-02T04:57:30.956Z,99308.34
2024-04-02T04:59:38.617Z,99300.45
2024-04-02T05:05:37.047Z,99300.38
2024-04-02T05:07:59.172Z,99307.02
2024-04-02T05:10:09.548Z,99306.23
2024-04-02T05:12:16.893Z,99309.39
2024-04-02T05:14:24.903Z,99305.67
2024-04-02T05:16:34.894Z,99300.14
2024-04-02T05:18:42.788Z,99298.23
2024-04-02T05:20:50.488Z,99293.41
2024-04-02T05:22:58.076Z,99295.09
2024-04-02T05:25:06.499Z,99293.14
2024-04-02T05:27:13.861Z,99296.09
2024-04-02T05:29:21.557Z,99301.27
2024-04-02T05:31:29.002Z,99302.74
2024-04-02T05:33:36.752Z,99300.11
2024-04-02T05:35:44.137Z,99305.73
2024-04-02T05:37:53.024Z,99308.95
2024-04-02T05:40:00.374Z,99313.10
2024-04-02T05:42:12.237Z,99316.55
2024-04-02T05:44:19.673Z,99323.87
2024-04-02T05:46:27.081Z,99326.23
2024-04-02T05:48:34.840Z,99328.77
2024-04-02T05:50:42.566Z,99333.23
2024-04-02T05:52:50.671Z,99335.56
2024-04-02T05:54:58.422Z,99340.55
2024-04-02T05:57:06.705Z,99341.33
2024-04-02T05:59:14.462Z,99347.55
2024-04-02T06:01:23.414Z,99353.23
2024-04-02T06:03:30.766Z,99358.80
2024-04-02T06:05:39.185Z,99351.98
2024-04-02T06:07:46.579Z,99355.51
2024-04-02T06:09:55.072Z,99357.33
2024-04-02T06:12:02.883Z,99360.10
2024-04-02T06:14:10.808Z,99363.91
2024-04-02T06:16:18.686Z,99363.70
2024-04-02T06:18:26.090Z,99366.47
2024-04-02T06:20:33.940Z,99364.63
2024-04-02T06:22:41.319Z,99361.20
2024-04-02T06:24:49.539Z,99362.40
2024-04-02T06:26:56.923Z,99363.85
2024-04-02T06:29:04.265Z,99364.17
2024-04-02T06:31:11.776Z,99364.67
2024-04-02T06:33:19.337Z,99364.80
2024-04-02T06:35:26.691Z,99370.34
2024-04-02T06:37:34.550Z,99370.02
2024-04-02T06:39:41.887Z,99368.66
2024-04-02T06:41:49.436Z,99370.48
2024-04-02T06:43:56.900Z,99375.45
2024-04-02T06:46:04.905Z,99381.80
2024-04-02T06:48:12.368Z,99383.61
2024-04-02T06:50:19.840Z,99381.33
2024-04-02T06:52:27.243Z,99382.86
2024-04-02T06:54:34.627Z,99382.05
2024-04-02T06:56:42.449Z,99382.84
2024-04-02T06:58:49.858Z,99379.02
2024-04-02T07:00:57.268Z,99378.85
2024-04-02T07:03:05.187Z,99379.31
2024-04-02T07:05:12.629Z,99377.31
2024-04-02T07:07:20.366Z,99378.33
2024-04-02T07:09:27.797Z,99377.66
2024-04-02T07:11:35.191Z,99373.87
2024-04-02T07:13:43.344Z,99371.27
2024-04-02T07:15:50.737Z,99365.29
2024-04-02T07:17:58.117Z,99363.84
2024-04-02T07:20:06.617Z,99352.57
2024-04-02T07:22:13.994Z,99349.73
2024-04-02T07:24:21.858Z,99351.16
2024-04-02T07:26:29.982Z,99357.04
2024-04-02T07:28:37.704Z,99355.25
2024-04-02T07:30:45.270Z,99357.80
2024-04-02T07:32:53.187Z,99363.45
2024-04-02T07:35:01.313Z,99369.52
2024-04-02T07:37:09.415Z,99372.65
2024-04-02T07:39:17.045Z,99381.09
2024-04-02T07:41:30.448Z,99383.77
2024-04-02T07:43:38.184Z,99389.96
2024-04-02T07:45:54.742Z,99394.20
2024-04-02T07:48:04.797Z,99402.55
2024-04-02T07:50:12.425Z,99408.16
2024-04-02T07:52:20.090Z,99412.73
2024-04-02T07:54:27.635Z,99412.02
2024-04-02T07:56:35.337Z,99413.93
2024-04-02T07:58:43.379Z,99417.63
2024-04-02T08:00:51.323Z,99422.83
2024-04-02T08:02:59.244Z,99419.23
2024-04-02T08:05:08.275Z,99416.95
2024-04-02T08:07:18.400Z,99415.30
2024-04-02T08:09:26.043Z,99416.70
2024-04-02T08:11:33.450Z,99419.33
2024-04-02T08:13:40.821Z,99421.41
2024-04-02T08:15:52.039Z,99416.80
2024-04-02T08:17:59.651Z,99413.42
2024-04-02T08:20:10.075Z,99415.30
2024-04-02T08:22:19.523Z,99417.65
2024-04-02T08:24:27.064Z,99416.35
2024-04-02T08:26:34.499Z,99417.55
2024-04-02T08:28:41.947Z,99414.06
2024-04-02T08:30:49.340Z,99421.58
2024-04-02T08:32:56.676Z,99421.15
2024-04-02T08:35:06.048Z,99417.92
2024-04-02T08:37:13.781Z,99427.45
2024-04-02T08:39:21.123Z,99431.88
2024-04-02T08:41:29.424Z,99429.39
2024-04-02T08:43:37.245Z,99427.73
2024-04-02T08:45:45.924Z,99432.58
2024-04-02T08:47:54.201Z,99438.67
2024-04-02T08:50:02.897Z,99434.69
2024-04-02T08:52:10.455Z,99436.71
2024-04-02T08:54:17.796Z,99438.67
2024-04-02T08:56:25.580Z,99448.71
2024-04-02T08:58:35.037Z,99442.20
2024-04-02T09:00:42.559Z,99444.60
2024-04-02T09:02:50.164Z,99452.52
2024-04-02T09:04:57.994Z,99450.33
2024-04-02T09:07:05.929Z,99455.14
2024-04-02T09:09:24.502Z,99456.40
2024-04-02T09:11:32.126Z,99456.80
2024-04-02T09:13:40.716Z,99467.33
2024-04-02T09:15:50.134Z,99475.48
2024-04-02T09:17:58.055Z,99478.86
2024-04-02T09:20:07.263Z,99484.79
2024-04-02T09:22:17.803Z,99486.79
2024-04-02T09:24:26.011Z,99492.89
2024-04-02T09:26:33.720Z,99495.15
2024-04-02T09:28:44.263Z,99499.41
2024-04-02T09:30:51.791Z,99490.95
2024-04-02T09:33:03.517Z,99484.64
2024-04-02T09:35:15.236Z,99489.35
2024-04-02T09:37:35.458Z,99484.65
2024-04-02T09:39:44.268Z,99490.09
2024-04-02T09:42:02.283Z,99488.45
2024-04-02T09:44:14.048Z,99492.05
2024-04-02T09:46:23.679Z,99489.19
2024-04-02T09:48:33.172Z,99487.33
2024-04-02T09:50:44.036Z,99489.65
2024-04-02T09:52:54.228Z,99491.54
2024-04-02T09:55:04.072Z,99494.02
2024-04-02T09:57:15.301Z,99491.41
2024-04-02T09:59:23.349Z,99498.88
2024-04-02T10:01:33.946Z,99503.81
2024-04-02T10:03:45.424Z,99499.20
2024-04-02T10:05:53.772Z,99505.52
2024-04-02T10:08:01.172Z,99504.55
2024-04-02T10:10:09.235Z,99503.70
2024-04-02T10:12:21.430Z,99504.85
2024-04-02T10:14:29.225Z,99503.94
2024-04-02T10:16:40.758Z,99498.44
2024-04-02T10:18:49.454Z,99498.20
2024-04-02T10:21:00.894Z,99503.11
2024-04-02T10:23:11.562Z,99506.96
2024-04-02T10:25:18.933Z,99508.42
2024-04-02T10:27:27.892Z,99508.45
2024-04-02T10:29:35.266Z,99515.14
2024-04-02T10:31:44.879Z,99511.56
2024-04-02T10:33:55.487Z,99514.85
2024-04-02T10:36:03.398Z,99512.85
2024-04-02T10:38:11.547Z,99512.75
2024-04-02T10:40:20.171Z,99516.02
2024-04-02T10:42:27.877Z,99519.39
2024-04-02T10:44:36.017Z,99522.53
2024-04-02T10:46:45.280Z,99523.42
2024-04-02T10:48:52.971Z,99524.69
2024-04-02T10:51:00.658Z,99530.81
2024-04-02T10:53:08.512Z,99524.45
2024-04-02T10:55:16.641Z,99530.53
2024-04-02T10:57:24.233Z,99528.48
2024-04-02T10:59:37.228Z,99529.30
2024-04-02T11:01:45.214Z,99527.68
2024-04-02T11:03:54.362Z,99525.02
2024-04-02T11:06:12.164Z,99528.95
2024-04-02T11:08:19.911Z,99529.90
2024-04-02T11:10:27.340Z,99533.89
2024-04-02T11:12:34.743Z,99533.02
2024-04-02T11:14:42.890Z,99526.88
2024-04-02T11:16:53.478Z,99527.77
2024-04-02T11:19:02.834Z,99527.21
2024-04-02T11:21:15.634Z,99531.52
2024-04-02T11:23:45.089Z,99530.91
2024-04-02T11:25:54.101Z,99533.42
2024-04-02T11:28:10.338Z,99529.41
2024-04-02T11:30:21.426Z,99528.42
2024-04-02T11:32:30.179Z,99534.91
2024-04-02T11:34:37.539Z,99538.01
2024-04-02T11:36:45.222Z,99533.15
2024-04-02T11:38:52.662Z,99537.71
2024-04-02T11:41:03.081Z,99535.66
2024-04-02T11:43:10.614Z,99539.72
2024-04-02T11:45:18.365Z,99543.59
2024-04-02T11:47:25.796Z,99544.48
2024-04-02T11:49:33.539Z,99539.39
2024-04-02T11:51:40.855Z,99538.94
2024-04-02T11:53:48.544Z,99545.79
2024-04-02T11:55:56.801Z,99538.81
2024-04-02T11:58:22.153Z,99535.88
2024-04-02T12:00:30.259Z,99543.52
2024-04-02T12:02:37.934Z,99544.15
2024-04-02T12:04:46.090Z,99545.38
2024-04-02T12:06:59.035Z,99546.35
2024-04-02T12:09:10.175Z,99548.33
2024-04-02T12:11:18.345Z,99552.13
2024-04-02T12:13:26.134Z,99546.95
2024-04-02T12:15:34.143Z,99551.03
2024-04-02T12:17:41.854Z,99548.21
2024-04-02T12:19:49.716Z,99548.95
2024-04-02T12:21:57.468Z,99550.75
2024-04-02T12:24:06.519Z,99550.15
2024-04-02T12:26:14.590Z,99538.02
2024-04-02T12:28:21.935Z,99527.85
2024-04-02T12:30:32.649Z,99536.90
2024-04-02T12:32:44.630Z,99539.67
2024-04-02T12:34:53.102Z,99539.67
2024-04-02T12:37:02.249Z,99539.25
2024-04-02T12:39:09.973Z,99535.25
2024-04-02T12:41:17.659Z,99536.77
2024-04-02T12:43:25.039Z,99544.13
2024-04-02T12:45:33.113Z,99542.66
2024-04-02T12:47:42.468Z,99551.13
2024-04-02T12:49:50.410Z,99548.48
2024-04-02T12:51:57.761Z,99549.59
2024-04-02T12:54:05.930Z,99552.45
2024-04-02T12:56:15.299Z,99552.95
2024-04-02T12:58:28.415Z,99555.90
2024-04-02T13:00:42.603Z,99555.20
2024-04-02T13:02:50.410Z,99563.42
2024-04-02T13:05:00.202Z,99566.14
2024-04-02T13:07:07.885Z,99569.77
2024-04-02T13:09:15.486Z,99562.48
2024-04-02T13:11:22.874Z,99576.73
2024-04-02T13:13:30.544Z,99572.30
2024-04-02T13:15:38.266Z,99575.92
2024-04-02T13:17:45.965Z,99572.41
2024-04-02T13:19:54.325Z,99571.39
2024-04-02T13:22:02.030Z,99568.67
2024-04-02T13:24:10.860Z,99565.22
2024-04-02T13:26:18.736Z,99573.92
2024-04-02T13:28:26.495Z,99570.05
2024-04-02T13:30:34.003Z,99570.88
2024-04-02T13:32:41.483Z,99567.35
2024-04-02T13:34:50.596Z,99573.70
2024-04-02T13:36:57.944Z,99571.35
2024-04-02T13:39:05.594Z,99574.50
2024-04-02T13:41:13.707Z,99570.80
2024-04-02T13:43:21.511Z,99572.27
2024-04-02T13:45:29.213Z,99572.77
2024-04-02T13:47:36.845Z,99574.45
2024-04-02T13:49:44.579Z,99564.09
2024-04-02T13:51:51.935Z,99565.33
2024-04-02T13:53:59.326Z,99564.45
2024-04-02T13:56:09.464Z,99559.14
2024-04-02T13:58:17.149Z,99562.27
2024-04-02T14:00:24.543Z,99561.13
2024-04-02T14:02:31.875Z,99559.73
2024-04-02T14:04:44.825Z,99566.59
2024-04-02T14:06:52.579Z,99572.67
2024-04-02T14:08:59.890Z,99570.44
2024-04-02T14:11:07.990Z,99570.83
2024-04-02T14:13:34.480Z,99567.28
2024-04-02T14:15:42.987Z,99560.83
2024-04-02T14:17:50.878Z,99563.71
2024-04-02T14:20:00.685Z,99565.46
2024-04-02T14:22:08.338Z,99560.23
2024-04-02T14:24:16.572Z,99562.40
2024-04-02T14:26:25.029Z,99565.92
2024-04-02T14:28:33.562Z,99571.50
2024-04-02T14:30:40.889Z,99565.89
2024-04-02T14:32:48.272Z,99569.04
2024-04-02T14:34:57.663Z,99570.08
2024-04-02T14:37:06.831Z,99570.42
2024-04-02T14:39:14.257Z,99567.16
2024-04-02T14:41:22.151Z,99569.73
2024-04-02T14:43:31.007Z,99568.05
2024-04-02T14:45:38.587Z,99572.33
2024-04-02T14:47:46.754Z,99564.90
2024-04-02T14:49:55.168Z,99569.45
2024-04-02T14:52:02.596Z,99564.53
2024-04-02T14:54:09.970Z,99572.03
2024-04-02T14:56:17.420Z,99566.52
2024-04-02T14:58:25.422Z,99567.02
2024-04-02T15:00:33.100Z,99567.52
2024-04-02T15:02:40.845Z,99576.63
2024-04-02T15:04:48.511Z,99573.02
2024-04-02T15:06:56.240Z,99575.64
2024-04-02T15:09:12.560Z,99576.33
2024-04-02T15:11:23.639Z,99580.80
2024-04-02T15:13:31.451Z,99580.14
2024-04-02T15:15:39.148Z,99575.69
2024-04-02T15:17:46.477Z,99583.20
2024-04-02T15:19:53.844Z,99574.33
2024-04-02T15:22:03.253Z,99577.92
2024-04-02T15:24:12.714Z,99575.26
2024-04-02T15:26:20.417Z,99572.80
2024-04-02T15:28:27.726Z,99572.55
2024-04-02T15:30:35.059Z,99576.87
2024-04-02T15:32:44.312Z,99578.70
2024-04-02T15:34:52.619Z,99580.97
2024-04-02T15:36:59.962Z,99580.65
2024-04-02T15:39:09.265Z,99585.86
2024-04-02T15:41:17.112Z,99585.84
2024-04-02T15:43:24.837Z,99586.31
2024-04-02T15:45:32.168Z,99593.51
2024-04-02T15:47:39.835Z,99599.67
2024-04-02T15:49:47.611Z,99598.39
2024-04-02T15:51:55.232Z,99599.52
2024-04-02T15:54:02.993Z,99604.11
2024-04-02T15:56:29.407Z,99612.20
2024-04-02T15:58:37.956Z,99616.23
2024-04-02T16:00:45.301Z,99619.76
2024-04-02T16:02:53.005Z,99622.55
2024-04-02T16:05:00.751Z,99620.23
2024-04-02T16:07:08.549Z,99624.86
2024-04-02T16:09:15.915Z,99623.87
2024-04-02T16:11:24.468Z,99638.23
2024-04-02T16:13:33.393Z,99647.88
2024-04-02T16:15:40.797Z,99667.61
2024-04-02T16:17:48.548Z,99677.69
2024-04-02T16:19:55.980Z,99670.20
2024-04-02T16:22:03.343Z,99646.13
2024-04-02T16:24:11.248Z,99644.08
2024-04-02T16:26:18.577Z,99642.11
2024-04-02T16:28:27.392Z,99639.02
2024-04-02T16:30:37.351Z,99638.44
2024-04-02T16:32:45.027Z,99640.34
2024-04-02T16:34:55.584Z,99634.66
2024-04-02T16:37:03.272Z,99636.12
2024-04-02T16:39:11.340Z,99642.20
2024-04-02T16:41:19.298Z,99645.44
2024-04-02T16:43:28.267Z,99641.33
2024-04-02T16:45:37.531Z,99643.30
2024-04-02T16:47:47.616Z,99644.20
2024-04-02T16:49:55.037Z,99641.50
2024-04-02T16:52:02.722Z,99638.64
2024-04-02T16:54:10.322Z,99641.39
2024-04-02T16:56:18.328Z,99644.19
2024-04-02T16:58:26.005Z,99644.52
2024-04-02T17:00:33.616Z,99647.21
2024-04-02T17:02:45.851Z,99642.10
2024-04-02T17:04:53.183Z,99643.30
2024-04-02T17:07:01.305Z,99639.67
2024-04-02T17:09:09.381Z,99636.11
2024-04-02T17:11:16.845Z,99636.54
2024-04-02T17:13:24.271Z,99637.23
2024-04-02T17:15:33.153Z,99641.55
2024-04-02T17:17:40.737Z,99645.44
2024-04-02T17:19:56.977Z,99645.83
2024-04-02T17:22:05.811Z,99644.86
2024-04-02T17:24:13.227Z,99647.74
2024-04-02T17:26:21.019Z,99651.36
2024-04-02T17:28:29.076Z,99653.70
2024-04-02T17:30:36.419Z,99648.15
2024-04-02T17:32:43.837Z,99651.77
2024-04-02T17:34:53.108Z,99652.82
2024-04-02T17:37:01.046Z,99661.04
2024-04-02T17:39:09.616Z,99665.98
2024-04-02T17:41:17.821Z,99666.61
2024-04-02T17:43:26.675Z,99665.39
2024-04-02T17:45:34.129Z,99670.46
2024-04-02T17:47:41.550Z,99674.79
2024-04-02T17:49:49.286Z,99679.84
2024-04-02T17:51:59.774Z,99680.25
2024-04-02T17:54:08.044Z,99686.02
2024-04-02T17:56:18.432Z,99685.93
2024-04-02T17:58:26.149Z,99685.67
2024-04-02T18:00:33.479Z,99686.02
2024-04-02T18:02:40.840Z,99685.19
2024-04-02T18:04:48.409Z,99682.96
2024-04-02T18:06:56.955Z,99681.95
2024-04-02T18:09:04.323Z,99678.51
2024-04-02T18:11:13.359Z,99682.59
2024-04-02T18:13:21.080Z,99680.19
2024-04-02T18:15:29.138Z,99689.42
2024-04-02T18:17:36.518Z,99695.90
2024-04-02T18:19:44.222Z,99695.45
2024-04-02T18:21:51.546Z,99693.50
2024-04-02T18:23:59.230Z,99699.58
2024-04-02T18:26:08.977Z,99703.88
2024-04-02T18:28:18.149Z,99696.80
2024-04-02T18:30:25.523Z,99700.70
2024-04-02T18:32:33.409Z,99703.23
2024-04-02T18:34:40.752Z,99704.48
2024-04-02T18:36:48.912Z,99711.48
2024-04-02T18:38:58.403Z,99715.36
2024-04-02T18:41:07.921Z,99713.86
2024-04-02T18:43:16.459Z,99715.15
2024-04-02T18:45:23.832Z,99707.26
2024-04-02T18:47:31.555Z,99711.01
2024-04-02T18:49:38.987Z,99706.16
2024-04-02T18:51:46.350Z,99705.26
2024-04-02T18:53:53.673Z,99696.71
2024-04-02T18:56:04.311Z,99695.58
2024-04-02T18:58:12.212Z,99697.39
2024-04-02T19:00:21.255Z,99696.41
2024-04-02T19:02:30.580Z,99694.05
2024-04-02T19:04:38.326Z,99697.48
2024-04-02T19:06:45.635Z,99694.67
2024-04-02T19:08:52.931Z,99697.39
2024-04-02T19:11:04.252Z,99699.40
2024-04-02T19:13:11.824Z,99705.89
2024-04-02T19:15:19.500Z,99704.23
2024-04-02T19:17:26.892Z,99698.87
2024-04-02T19:19:34.775Z,99701.21
2024-04-02T19:21:42.120Z,99699.58
2024-04-02T19:23:49.532Z,99701.19
2024-04-02T19:25:58.683Z,99707.20
2024-04-02T19:28:07.927Z,99707.16
2024-04-02T19:30:17.358Z,99707.86
2024-04-02T19:32:25.072Z,99708.65
2024-04-02T19:34:32.764Z,99705.54
2024-04-02T19:36:40.161Z,99708.26
2024-04-02T19:38:47.896Z,99701.12
2024-04-02T19:41:00.850Z,99702.43
2024-04-02T19:43:08.570Z,99703.40
2024-04-02T19:45:16.023Z,99702.11
2024-04-02T19:47:23.546Z,99704.20
2024-04-02T19:49:30.983Z,99706.67
2024-04-02T19:51:39.857Z,99709.58
2024-04-02T19:53:50.287Z,99710.86
2024-04-02T19:55:58.713Z,99706.20
2024-04-02T19:58:06.486Z,99702.38
2024-04-02T20:00:15.458Z,99704.76
2024-04-02T20:02:22.792Z,99711.30
2024-04-02T20:04:30.138Z,99708.95
2024-04-02T20:06:38.206Z,99707.24
2024-04-02T20:08:46.402Z,99707.73
2024-04-02T20:10:54.559Z,99705.89
2024-04-02T20:13:01.956Z,99703.21
2024-04-02T20:15:10.449Z,99704.48
2024-04-02T20:17:18.068Z,99697.55
2024-04-02T20:19:26.220Z,99700.41
2024-04-02T20:21:33.569Z,99697.12
2024-04-02T20:23:42.002Z,99697.87
2024-04-02T20:25:49.488Z,99695.17
2024-04-02T20:27:56.917Z,99688.27
2024-04-02T20:30:05.238Z,99689.57
2024-04-02T20:32:13.306Z,99690.52
2024-04-02T20:34:20.982Z,99688.06
2024-04-02T20:36:28.646Z,99688.11
2024-04-02T20:38:36.609Z,99682.19
2024-04-02T20:40:44.308Z,99681.42
2024-04-02T20:42:51.769Z,99681.80
2024-04-02T20:45:00.507Z,99681.73
2024-04-02T20:47:08.754Z,99678.72
2024-04-02T20:49:16.804Z,99681.05
2024-04-02T20:51:24.195Z,99678.67
2024-04-02T20:53:31.523Z,99677.90
2024-04-02T20:55:39.280Z,99674.50
2024-04-02T20:57:47.054Z,99677.42
2024-04-02T20:59:54.774Z,99674.73
2024-04-02T21:02:02.508Z,99677.23
2024-04-02T21:04:10.076Z,99673.08
2024-04-02T21:06:17.508Z,99675.85
2024-04-02T21:08:24.868Z,99675.95
2024-04-02T21:10:32.424Z,99675.33
2024-04-02T21:12:39.820Z,99675.42
2024-04-02T21:14:47.135Z,99672.91
2024-04-02T21:16:54.551Z,99672.12
2024-04-02T21:19:01.889Z,99671.52
2024-04-02T21:21:10.415Z,99665.80
2024-04-02T21:23:17.809Z,99667.80
2024-04-02T21:25:25.640Z,99669.64
2024-04-02T21:27:33.304Z,99668.16
2024-04-02T21:29:41.127Z,99671.33
2024-04-02T21:31:48.471Z,99670.23
2024-04-02T21:33:56.217Z,99670.33
2024-04-02T21:36:03.835Z,99674.50
2024-04-02T21:38:15.101Z,99670.00
2024-04-02T21:40:23.550Z,99672.66
2024-04-02T21:42:30.897Z,99674.57
2024-04-02T21:44:42.704Z,99676.02
2024-04-02T21:46:50.743Z,99673.82
2024-04-02T21:48:58.850Z,99672.73
2024-04-02T21:51:08.521Z,99677.25
2024-04-02T21:53:15.871Z,99676.64
2024-04-02T21:55:24.022Z,99679.30
2024-04-02T21:57:31.991Z,99679.48
2024-04-02T21:59:39.283Z,99680.98
2024-04-02T22:01:47.019Z,99679.75
2024-04-02T22:03:54.320Z,99676.36
2024-04-02T22:06:04.083Z,99678.23
2024-04-02T22:08:13.200Z,99676.10
2024-04-02T22:10:21.780Z,99674.98
2024-04-02T22:12:29.181Z,99676.45
2024-04-02T22:14:36.882Z,99678.84
2024-04-02T22:16:44.649Z,99684.49
2024-04-02T22:18:52.458Z,99677.00
2024-04-02T22:21:07.181Z,99682.11
2024-04-02T22:23:16.028Z,99684.27
2024-04-02T22:25:23.598Z,99679.67
2024-04-02T22:29:38.751Z,99680.08
2024-04-02T22:31:46.063Z,99679.80
2024-04-02T22:33:53.408Z,99685.20
2024-04-02T22:36:00.822Z,99681.17
2024-04-02T22:38:09.671Z,99677.77
2024-04-02T22:40:18.127Z,99675.25
2024-04-02T22:42:25.971Z,99669.76
2024-04-02T22:44:33.330Z,99676.17
2024-04-02T22:46:40.705Z,99675.04
2024-04-02T22:48:50.095Z,99672.70
2024-04-02T22:50:57.415Z,99676.26
2024-04-02T22:53:05.375Z,99678.36
2024-04-02T22:55:13.634Z,99673.77
2024-04-02T22:57:20.998Z,99675.77
2024-04-02T22:59:28.432Z,99677.81
2024-04-02T23:01:35.920Z,99673.69
2024-04-02T23:03:43.244Z,99675.79
2024-04-02T23:05:50.645Z,99673.60
2024-04-02T23:07:57.989Z,99669.30
2024-04-02T23:10:06.096Z,99671.58
2024-04-02T23:12:13.675Z,99667.82
2024-04-02T23:14:21.799Z,99668.94
2024-04-02T23:16:29.717Z,99668.27
2024-04-02T23:18:37.673Z,99667.97
2024-04-02T23:20:55.064Z,99669.03
2024-04-02T23:23:02.767Z,99670.16
2024-04-02T23:25:10.208Z,99669.01
2024-04-02T23:27:17.603Z,99670.02
2024-04-02T23:29:24.989Z,99668.43
2024-04-02T23:31:32.360Z,99667.77
2024-04-02T23:33:40.034Z,99671.45
2024-04-02T23:35:48.034Z,99672.02
2024-04-02T23:37:55.799Z,99666.85
2024-04-02T23:40:04.242Z,99671.12
2024-04-02T23:42:11.659Z,99666.90
2024-04-02T23:44:19.407Z,99666.14
2024-04-02T23:46:27.187Z,99665.66
2024-04-02T23:48:34.995Z,99663.98
2024-04-02T23:50:46.512Z,99663.98
2024-04-02T23:52:53.923Z,99663.67
2024-04-02T23:55:01.324Z,99665.48
2024-04-02T23:57:09.151Z,99669.21
2024-04-02T23:59:16.847Z,99669.25
